createdAt,value
2022-09-23T00:01:07.631Z,9.77
2022-09-23T00:04:10.000Z,9.70
2022-09-23T00:07:12.208Z,8.88
2022-09-23T00:10:14.592Z,9.48
2022-09-23T00:13:16.731Z,9.38
2022-09-23T00:16:20.733Z,8.95
2022-09-23T00:19:22.999Z,8.80
2022-09-23T00:22:25.237Z,9.18
2022-09-23T00:25:29.733Z,9.52
2022-09-23T00:28:32.053Z,9.80
2022-09-23T00:31:34.209Z,10.02
2022-09-23T00:34:36.390Z,10.73
2022-09-23T00:37:38.825Z,12.07
2022-09-23T00:40:46.131Z,14.00
2022-09-23T00:43:53.080Z,11.70
2022-09-23T00:46:55.269Z,11.07
2022-09-23T00:50:01.845Z,12.43
2022-09-23T00:53:06.886Z,11.90
2022-09-23T00:56:09.941Z,11.48
2022-09-23T00:59:13.351Z,10.30
2022-09-23T01:02:16.701Z,10.15
2022-09-23T01:05:19.605Z,8.83
2022-09-23T01:08:22.747Z,9.82
2022-09-23T01:11:28.046Z,9.05
2022-09-23T01:14:31.370Z,9.27
2022-09-23T01:17:53.745Z,8.75
2022-09-23T01:20:59.400Z,8.27
2022-09-23T01:24:13.044Z,8.45
2022-09-23T01:27:15.474Z,8.75
2022-09-23T01:30:34.041Z,9.60
2022-09-23T01:33:51.127Z,9.25
2022-09-23T01:37:01.557Z,8.67
2022-09-23T01:40:11.175Z,8.32
2022-09-23T01:43:17.382Z,8.25
2022-09-23T01:46:28.028Z,7.95
2022-09-23T01:49:34.419Z,8.15
2022-09-23T01:52:42.025Z,11.03
2022-09-23T01:55:48.400Z,8.85
2022-09-23T01:58:50.527Z,8.40
2022-09-23T02:01:58.227Z,7.82
2022-09-23T02:05:08.031Z,8.85
2022-09-23T02:08:10.381Z,7.90
2022-09-23T02:11:15.680Z,8.85
2022-09-23T02:14:50.449Z,8.18
2022-09-23T02:17:55.750Z,8.48
2022-09-23T02:21:00.443Z,8.38
2022-09-23T02:24:06.039Z,7.57
2022-09-23T02:27:34.994Z,7.75
2022-09-23T02:30:47.177Z,7.47
2022-09-23T02:33:55.287Z,7.90
2022-09-23T02:37:03.313Z,8.05
2022-09-23T02:40:26.039Z,7.40
2022-09-23T02:43:35.502Z,7.20
2022-09-23T02:46:37.964Z,7.80
2022-09-23T02:49:40.638Z,8.32
2022-09-23T02:52:44.146Z,8.20
2022-09-23T02:55:46.277Z,6.83
2022-09-23T02:58:49.338Z,9.88
2022-09-23T03:01:56.621Z,6.97
2022-09-23T03:05:02.009Z,8.05
2022-09-23T03:08:19.600Z,8.80
2022-09-23T03:11:22.359Z,8.27
2022-09-23T03:14:29.548Z,8.80
2022-09-23T03:17:34.954Z,8.20
2022-09-23T03:20:44.782Z,7.63
2022-09-23T03:23:47.917Z,8.93
2022-09-23T03:26:50.782Z,7.80
2022-09-23T03:29:53.779Z,9.27
2022-09-23T03:32:57.646Z,9.32
2022-09-23T03:36:20.729Z,9.15
2022-09-23T03:39:43.133Z,8.45
2022-09-23T03:42:49.038Z,8.00
2022-09-23T03:45:53.384Z,7.55
2022-09-23T03:49:03.114Z,7.78
2022-09-23T03:52:05.853Z,7.55
2022-09-23T03:55:08.856Z,7.72
2022-09-23T03:58:11.288Z,8.27
2022-09-23T04:01:14.778Z,9.00
2022-09-23T04:04:17.108Z,7.65
2022-09-23T04:07:19.478Z,7.90
2022-09-23T04:10:21.733Z,7.25
2022-09-23T04:13:23.936Z,7.70
2022-09-23T04:16:26.275Z,6.90
2022-09-23T04:19:28.633Z,7.28
2022-09-23T04:22:31.681Z,7.10
2022-09-23T04:25:34.047Z,6.43
2022-09-23T04:28:36.565Z,6.60
2022-09-23T04:31:39.094Z,7.03
2022-09-23T04:34:41.240Z,6.75
2022-09-23T04:37:43.536Z,7.05
2022-09-23T04:40:45.890Z,6.47
2022-09-23T04:43:48.196Z,7.57
2022-09-23T04:46:50.709Z,6.53
2022-09-23T04:49:55.579Z,7.05
2022-09-23T04:53:02.441Z,6.47
2022-09-23T04:56:05.883Z,6.88
2022-09-23T04:59:09.034Z,6.53
2022-09-23T05:02:12.272Z,6.35
2022-09-23T05:05:15.766Z,6.80
2022-09-23T05:08:17.968Z,6.50
2022-09-23T05:11:20.313Z,7.38
2022-09-23T05:14:22.486Z,8.70
2022-09-23T05:17:24.749Z,8.45
2022-09-23T05:20:27.428Z,8.55
2022-09-23T05:23:30.252Z,8.40
2022-09-23T05:26:32.957Z,8.02
2022-09-23T05:29:35.264Z,7.83
2022-09-23T05:32:37.619Z,8.02
2022-09-23T05:35:40.190Z,8.30
2022-09-23T05:38:42.478Z,9.48
2022-09-23T05:41:45.842Z,10.25
2022-09-23T05:44:49.412Z,10.20
2022-09-23T05:47:52.976Z,9.80
2022-09-23T05:50:56.667Z,8.32
2022-09-23T05:53:59.653Z,9.93
2022-09-23T05:57:05.035Z,9.63
2022-09-23T06:00:09.502Z,8.67
2022-09-23T06:03:15.205Z,9.57
2022-09-23T06:06:21.268Z,10.35
2022-09-23T06:09:24.080Z,11.10
2022-09-23T06:12:26.591Z,12.80
2022-09-23T06:15:29.267Z,9.90
2022-09-23T06:18:32.290Z,10.15
2022-09-23T06:21:35.896Z,10.75
2022-09-23T06:24:38.276Z,10.23
2022-09-23T06:27:42.303Z,10.73
2022-09-23T06:30:46.550Z,9.80
2022-09-23T06:33:49.862Z,11.75
2022-09-23T06:36:55.729Z,11.13
2022-09-23T06:39:58.364Z,10.68
2022-09-23T06:43:01.302Z,11.25
2022-09-23T06:46:05.222Z,11.03
2022-09-23T06:49:07.800Z,10.43
2022-09-23T06:52:10.148Z,10.95
2022-09-23T06:55:13.775Z,10.68
2022-09-23T06:58:21.004Z,9.95
2022-09-23T07:01:24.303Z,8.57
2022-09-23T07:04:29.371Z,10.35
2022-09-23T07:07:31.878Z,8.27
2022-09-23T07:10:34.599Z,6.90
2022-09-23T07:13:37.681Z,7.18
2022-09-23T07:16:40.375Z,7.90
2022-09-23T07:19:43.196Z,6.95
2022-09-23T07:22:52.348Z,6.45
2022-09-23T07:26:00.223Z,6.88
2022-09-23T07:29:06.695Z,6.65
2022-09-23T07:32:14.119Z,6.77
2022-09-23T07:35:17.533Z,6.00
2022-09-23T07:38:21.160Z,6.25
2022-09-23T07:41:27.549Z,5.95
2022-09-23T07:44:35.242Z,6.22
2022-09-23T07:47:48.963Z,4.77
2022-09-23T07:50:53.817Z,5.20
2022-09-23T07:53:56.848Z,4.72
2022-09-23T07:57:00.131Z,4.20
2022-09-23T08:00:03.623Z,3.75
2022-09-23T08:03:15.405Z,3.30
2022-09-23T08:06:21.067Z,2.95
2022-09-23T08:09:25.095Z,2.70
2022-09-23T08:12:27.596Z,2.40
2022-09-23T08:15:31.322Z,2.50
2022-09-23T08:18:35.047Z,2.60
2022-09-23T08:21:39.364Z,2.70
2022-09-23T08:24:41.866Z,2.60
2022-09-23T08:27:44.062Z,2.53
2022-09-23T08:30:48.826Z,2.75
2022-09-23T08:33:54.967Z,2.50
2022-09-23T08:37:00.252Z,2.30
2022-09-23T08:40:02.618Z,2.90
2022-09-23T08:43:27.810Z,2.25
2022-09-23T08:46:32.259Z,2.83
2022-09-23T08:49:42.072Z,2.47
2022-09-23T08:52:58.766Z,2.53
2022-09-23T08:56:04.524Z,2.53
2022-09-23T08:59:10.210Z,2.60
2022-09-23T09:02:47.570Z,2.60
2022-09-23T09:06:03.806Z,2.53
2022-09-23T09:09:30.228Z,3.05
2022-09-23T09:12:41.214Z,3.10
2022-09-23T09:15:51.601Z,2.70
2022-09-23T09:18:55.290Z,3.03
2022-09-23T09:22:00.405Z,3.30
2022-09-23T09:25:07.203Z,2.88
2022-09-23T09:28:39.311Z,2.67
2022-09-23T09:31:52.182Z,2.92
2022-09-23T09:34:58.885Z,2.45
2022-09-23T09:38:01.947Z,2.60
2022-09-23T09:41:17.069Z,2.65
2022-09-23T09:44:37.077Z,2.85
2022-09-23T09:47:49.942Z,3.00
2022-09-23T09:50:54.872Z,2.80
2022-09-23T09:54:17.873Z,2.47
2022-09-23T09:57:36.825Z,3.10
2022-09-23T10:00:46.393Z,2.55
2022-09-23T10:03:51.444Z,2.60
2022-09-23T10:07:12.382Z,2.35
2022-09-23T10:10:31.963Z,2.73
2022-09-23T10:13:35.305Z,2.55
2022-09-23T10:16:37.690Z,2.92
2022-09-23T10:19:44.884Z,2.80
2022-09-23T10:22:47.658Z,2.63
2022-09-23T10:26:06.492Z,2.57
2022-09-23T10:29:41.248Z,2.60
2022-09-23T10:32:44.609Z,2.60
2022-09-23T10:35:57.285Z,2.70
2022-09-23T10:39:20.092Z,2.70
2022-09-23T10:42:50.451Z,2.80
2022-09-23T10:46:15.431Z,2.60
2022-09-23T10:49:43.158Z,2.75
2022-09-23T10:53:05.243Z,3.03
2022-09-23T10:56:23.337Z,2.60
2022-09-23T11:03:52.612Z,2.80
2022-09-23T11:07:05.057Z,2.75
2022-09-23T11:10:35.291Z,2.80
2022-09-23T11:13:40.716Z,2.50
2022-09-23T11:17:05.287Z,2.60
2022-09-23T11:20:16.733Z,2.67
2022-09-23T11:23:26.568Z,2.13
2022-09-23T11:26:42.566Z,2.30
2022-09-23T11:29:51.294Z,2.40
2022-09-23T11:33:06.453Z,2.30
2022-09-23T11:36:11.459Z,2.50
2022-09-23T11:39:43.580Z,2.47
2022-09-23T11:43:07.669Z,2.50
2022-09-23T11:46:17.333Z,2.60
2022-09-23T11:49:26.201Z,2.60
2022-09-23T11:52:28.816Z,2.20
2022-09-23T11:55:48.206Z,2.35
2022-09-23T11:59:00.855Z,2.00
2022-09-23T12:02:19.558Z,2.25
2022-09-23T12:05:25.732Z,2.40
2022-09-23T12:08:31.241Z,2.25
2022-09-23T12:11:55.040Z,2.20
2022-09-23T12:15:03.412Z,2.40
2022-09-23T12:18:05.912Z,2.20
2022-09-23T12:21:38.718Z,2.10
2022-09-23T12:24:54.143Z,2.10
2022-09-23T12:28:00.951Z,2.03
2022-09-23T12:31:08.658Z,2.50
2022-09-23T12:34:27.509Z,2.10
2022-09-23T12:37:34.887Z,2.10
2022-09-23T12:40:43.917Z,1.90
2022-09-23T12:44:15.244Z,2.00
2022-09-23T12:47:28.926Z,2.55
2022-09-23T12:50:48.134Z,2.00
2022-09-23T12:53:54.738Z,2.10
2022-09-23T12:56:58.041Z,2.10
2022-09-23T13:00:15.146Z,2.00
2022-09-23T13:03:36.005Z,1.90
2022-09-23T13:06:58.852Z,1.95
2022-09-23T13:10:12.001Z,1.80
2022-09-23T13:13:22.907Z,2.03
2022-09-23T13:16:33.057Z,1.90
2022-09-23T13:19:38.707Z,2.00
2022-09-23T13:22:53.624Z,2.13
2022-09-23T13:25:57.487Z,1.90
2022-09-23T13:29:00.145Z,1.88
2022-09-23T13:32:02.595Z,1.80
2022-09-23T13:35:06.709Z,2.25
2022-09-23T13:38:10.213Z,2.20
2022-09-23T13:41:17.654Z,2.47
2022-09-23T13:44:20.406Z,2.28
2022-09-23T13:47:23.164Z,2.33
2022-09-23T13:50:26.133Z,2.22
2022-09-23T13:53:29.505Z,2.30
2022-09-23T13:56:32.591Z,2.47
2022-09-23T13:59:41.637Z,2.80
2022-09-23T14:02:44.423Z,2.70
2022-09-23T14:05:46.921Z,2.70
2022-09-23T14:08:50.371Z,2.47
2022-09-23T14:11:52.533Z,2.30
2022-09-23T14:14:54.816Z,2.30
2022-09-23T14:18:06.191Z,2.55
2022-09-23T14:21:25.920Z,2.17
2022-09-23T14:24:32.952Z,2.13
2022-09-23T14:27:39.719Z,2.40
2022-09-23T14:30:43.137Z,2.70
2022-09-23T14:33:46.909Z,2.40
2022-09-23T14:37:07.848Z,2.50
2022-09-23T14:40:15.002Z,3.10
2022-09-23T14:43:23.020Z,2.87
2022-09-23T14:46:34.200Z,2.72
2022-09-23T14:49:36.497Z,2.92
2022-09-23T14:52:48.123Z,2.70
2022-09-23T14:55:57.416Z,2.60
2022-09-23T14:59:00.252Z,2.70
2022-09-23T15:02:03.311Z,2.33
2022-09-23T15:05:15.890Z,2.45
2022-09-23T15:08:23.185Z,2.95
2022-09-23T15:11:26.620Z,2.72
2022-09-23T15:14:39.084Z,2.53
2022-09-23T15:17:43.262Z,2.90
2022-09-23T15:20:52.690Z,2.55
2022-09-23T15:23:55.962Z,2.75
2022-09-23T15:26:58.178Z,2.67
2022-09-23T15:30:17.291Z,3.00
2022-09-23T15:33:20.273Z,3.28
2022-09-23T15:36:26.635Z,3.38
2022-09-23T15:39:35.999Z,4.00
2022-09-23T15:42:38.624Z,3.45
2022-09-23T15:45:44.734Z,4.23
2022-09-23T15:48:56.435Z,3.95
2022-09-23T15:52:01.608Z,3.75
2022-09-23T15:55:13.146Z,3.22
2022-09-23T15:58:15.401Z,3.17
2022-09-23T16:01:21.811Z,3.20
2022-09-23T16:04:26.421Z,3.38
2022-09-23T16:07:28.797Z,3.55
2022-09-23T16:10:31.562Z,3.55
2022-09-23T16:13:34.004Z,3.63
2022-09-23T16:16:36.378Z,3.97
2022-09-23T16:19:38.663Z,3.85
2022-09-23T16:22:41.195Z,3.60
2022-09-23T16:25:44.528Z,3.72
2022-09-23T16:28:47.521Z,3.65
2022-09-23T16:31:49.897Z,4.40
2022-09-23T16:34:52.140Z,4.25
2022-09-23T16:37:55.893Z,4.78
2022-09-23T16:41:01.237Z,4.55
2022-09-23T16:44:05.527Z,4.70
2022-09-23T16:47:08.644Z,4.87
2022-09-23T16:50:11.611Z,5.05
2022-09-23T16:53:18.041Z,5.05
2022-09-23T16:56:27.260Z,5.32
2022-09-23T16:59:50.499Z,5.00
2022-09-23T17:03:11.483Z,5.53
2022-09-23T17:06:14.391Z,5.35
2022-09-23T17:09:21.196Z,5.60
2022-09-23T17:12:27.515Z,5.57
2022-09-23T17:15:29.763Z,6.20
2022-09-23T17:18:31.969Z,6.03
2022-09-23T17:21:34.413Z,6.68
2022-09-23T17:24:36.718Z,6.80
2022-09-23T17:27:39.001Z,6.47
2022-09-23T17:30:41.249Z,7.63
2022-09-23T17:33:43.713Z,7.13
2022-09-23T17:36:46.084Z,7.90
2022-09-23T17:39:48.442Z,7.10
2022-09-23T17:42:51.695Z,7.78
2022-09-23T17:45:55.415Z,7.68
2022-09-23T17:48:57.806Z,8.30
2022-09-23T17:52:03.333Z,9.48
2022-09-23T17:55:05.839Z,9.30
2022-09-23T17:58:07.999Z,8.98
2022-09-23T18:01:12.482Z,10.75
2022-09-23T18:04:14.959Z,9.07
2022-09-23T18:07:17.456Z,9.55
2022-09-23T18:10:19.638Z,9.50
2022-09-23T18:13:21.789Z,9.55
2022-09-23T18:16:25.964Z,9.13
2022-09-23T18:19:28.296Z,9.10
2022-09-23T18:22:30.485Z,8.80
2022-09-23T18:25:39.546Z,9.75
2022-09-23T18:28:42.869Z,8.60
2022-09-23T18:31:45.793Z,9.02
2022-09-23T18:34:47.954Z,9.03
2022-09-23T18:37:50.690Z,10.32
2022-09-23T18:40:55.592Z,9.73
2022-09-23T18:43:57.845Z,10.38
2022-09-23T18:47:00.243Z,9.63
2022-09-23T18:50:21.027Z,10.33
2022-09-23T18:53:24.147Z,9.80
2022-09-23T18:56:27.911Z,10.20
2022-09-23T18:59:32.006Z,9.95
2022-09-23T19:02:34.198Z,9.75
2022-09-23T19:05:36.736Z,9.70
2022-09-23T19:08:38.953Z,9.75
2022-09-23T19:11:41.419Z,10.15
2022-09-23T19:14:45.060Z,10.55
2022-09-23T19:17:47.318Z,9.80
2022-09-23T19:20:53.379Z,9.50
2022-09-23T19:23:56.675Z,10.38
2022-09-23T19:26:59.103Z,9.93
2022-09-23T19:30:01.319Z,10.55
2022-09-23T19:33:03.576Z,11.70
2022-09-23T19:36:06.519Z,12.03
2022-09-23T19:39:18.696Z,12.32
2022-09-23T19:42:21.145Z,12.50
2022-09-23T19:45:23.503Z,13.57
2022-09-23T19:48:25.690Z,14.10
2022-09-23T19:51:28.299Z,13.93
2022-09-23T19:54:30.574Z,12.80
2022-09-23T19:57:33.766Z,13.57
2022-09-23T20:00:35.996Z,12.75
2022-09-23T20:03:39.097Z,13.25
2022-09-23T20:06:41.278Z,12.90
2022-09-23T20:09:43.397Z,13.15
2022-09-23T20:12:45.897Z,13.95
2022-09-23T20:15:48.873Z,12.80
2022-09-23T20:18:55.094Z,13.57
2022-09-23T20:22:16.107Z,13.73
2022-09-23T20:25:18.510Z,13.43
2022-09-23T20:28:21.284Z,14.88
2022-09-23T20:31:23.886Z,14.98
2022-09-23T20:34:29.665Z,14.48
2022-09-23T20:37:33.050Z,11.93
2022-09-23T20:40:38.645Z,14.30
2022-09-23T20:43:40.907Z,13.75
2022-09-23T20:46:48.199Z,13.75
2022-09-23T20:49:53.445Z,13.40
2022-09-23T20:52:56.370Z,13.27
2022-09-23T20:55:58.840Z,13.77
2022-09-23T20:59:01.971Z,13.27
2022-09-23T21:02:04.207Z,12.63
2022-09-23T21:05:06.727Z,13.73
2022-09-23T21:08:09.835Z,12.53
2022-09-23T21:11:13.578Z,13.43
2022-09-23T21:14:15.840Z,13.95
2022-09-23T21:17:18.548Z,14.55
2022-09-23T21:20:20.714Z,13.95
2022-09-23T21:23:27.196Z,13.97
2022-09-23T21:26:29.835Z,12.70
2022-09-23T21:29:32.240Z,13.15
2022-09-23T21:32:34.406Z,12.85
2022-09-23T21:35:37.949Z,11.98
2022-09-23T21:38:40.123Z,11.40
2022-09-23T21:41:42.284Z,12.27
2022-09-23T21:44:44.425Z,11.80
2022-09-23T21:47:46.859Z,12.50
2022-09-23T21:50:54.212Z,11.40
2022-09-23T21:53:57.198Z,11.60
2022-09-23T21:57:00.432Z,11.45
2022-09-23T22:00:02.922Z,13.18
2022-09-23T22:03:07.055Z,12.27
2022-09-23T22:06:10.266Z,11.75
2022-09-23T22:09:14.076Z,12.03
2022-09-23T22:12:16.235Z,11.13
2022-09-23T22:15:20.491Z,9.88
2022-09-23T22:18:22.654Z,12.00
2022-09-23T22:21:25.516Z,12.68
2022-09-23T22:24:28.108Z,11.37
2022-09-23T22:27:30.480Z,11.63
2022-09-23T22:30:51.352Z,11.07
2022-09-23T22:33:53.493Z,11.98
2022-09-23T22:36:57.133Z,11.50
2022-09-23T22:39:59.333Z,21.67
2022-09-23T22:43:01.561Z,11.40
2022-09-23T22:46:03.746Z,10.98
2022-09-23T22:49:07.447Z,11.00
2022-09-23T22:52:11.436Z,11.40
2022-09-23T22:55:13.632Z,11.20
2022-09-23T22:58:31.678Z,10.80
2022-09-23T23:01:35.547Z,11.32
2022-09-23T23:04:37.848Z,11.68
2022-09-23T23:07:40.764Z,10.90
2022-09-23T23:10:44.019Z,11.43
2022-09-23T23:13:46.163Z,10.73
2022-09-23T23:16:48.439Z,10.02
2022-09-23T23:19:50.897Z,10.32
2022-09-23T23:22:53.285Z,10.68
2022-09-23T23:25:55.695Z,9.67
2022-09-23T23:28:58.202Z,9.60
2022-09-23T23:32:00.402Z,9.57
2022-09-23T23:35:02.649Z,9.73
2022-09-23T23:38:05.830Z,10.10
2022-09-23T23:41:11.076Z,9.63
2022-09-23T23:44:13.365Z,9.27
2022-09-23T23:47:15.762Z,9.80
2022-09-23T23:50:18.204Z,9.98
2022-09-23T23:53:20.775Z,9.90
2022-09-23T23:56:24.207Z,8.90
2022-09-23T23:59:28.328Z,9.65
